sensor_id;sensor_type;location;lat;lon;timestamp;P1;durP1;ratioP1;P2;durP2;ratioP2
70532;SDS011;58088;51.186;17.130;2023-02-28T00:01:25;91.80;;;32.10;;
70532;SDS011;58088;51.186;17.130;2023-02-28T00:03:52;96.20;;;32.40;;
70532;SDS011;58088;51.186;17.130;2023-02-28T00:06:18;60.70;;;24.90;;
70532;SDS011;58088;51.186;17.130;2023-02-28T00:08:45;60.70;;;24.30;;
70532;SDS011;58088;51.186;17.130;2023-02-28T00:11:13;50.00;;;20.00;;
70532;SDS011;58088;51.186;17.130;2023-02-28T00:13:42;58.70;;;20.80;;
70532;SDS011;58088;51.186;17.130;2023-02-28T00:16:16;58.60;;;20.50;;
70532;SDS011;58088;51.186;17.130;2023-02-28T00:18:47;43.80;;;16.00;;
70532;SDS011;58088;51.186;17.130;2023-02-28T00:21:15;40.00;;;13.70;;
70532;SDS011;58088;51.186;17.130;2023-02-28T00:23:42;47.00;;;19.20;;
70532;SDS011;58088;51.186;17.130;2023-02-28T00:26:08;56.70;;;21.60;;
70532;SDS011;58088;51.186;17.130;2023-02-28T00:28:34;51.40;;;20.40;;
70532;SDS011;58088;51.186;17.130;2023-02-28T00:31:00;50.30;;;20.10;;
70532;SDS011;58088;51.186;17.130;2023-02-28T00:33:27;47.00;;;18.50;;
70532;SDS011;58088;51.186;17.130;2023-02-28T00:36:08;44.80;;;17.30;;
70532;SDS011;58088;51.186;17.130;2023-02-28T00:38:37;47.10;;;18.60;;
70532;SDS011;58088;51.186;17.130;2023-02-28T00:41:06;45.30;;;18.10;;
70532;SDS011;58088;51.186;17.130;2023-02-28T00:43:35;45.60;;;18.10;;
70532;SDS011;58088;51.186;17.130;2023-02-28T00:46:03;44.30;;;17.50;;
70532;SDS011;58088;51.186;17.130;2023-02-28T00:48:30;47.70;;;18.30;;
70532;SDS011;58088;51.186;17.130;2023-02-28T00:50:57;46.20;;;16.30;;
70532;SDS011;58088;51.186;17.130;2023-02-28T00:53:24;51.40;;;18.70;;
70532;SDS011;58088;51.186;17.130;2023-02-28T00:55:51;38.90;;;15.90;;
70532;SDS011;58088;51.186;17.130;2023-02-28T00:58:17;39.80;;;17.10;;
70532;SDS011;58088;51.186;17.130;2023-02-28T01:00:44;45.30;;;16.50;;
70532;SDS011;58088;51.186;17.130;2023-02-28T01:03:18;46.30;;;17.90;;
70532;SDS011;58088;51.186;17.130;2023-02-28T01:05:46;44.60;;;17.80;;
70532;SDS011;58088;51.186;17.130;2023-02-28T01:08:13;45.60;;;18.80;;
70532;SDS011;58088;51.186;17.130;2023-02-28T01:10:40;48.20;;;19.00;;
70532;SDS011;58088;51.186;17.130;2023-02-28T01:13:08;49.10;;;19.50;;
70532;SDS011;58088;51.186;17.130;2023-02-28T01:15:36;49.90;;;18.50;;
70532;SDS011;58088;51.186;17.130;2023-02-28T01:18:04;56.40;;;22.00;;
70532;SDS011;58088;51.186;17.130;2023-02-28T01:20:32;55.70;;;20.20;;
70532;SDS011;58088;51.186;17.130;2023-02-28T01:23:03;49.50;;;18.80;;
70532;SDS011;58088;51.186;17.130;2023-02-28T01:25:29;48.80;;;17.90;;
70532;SDS011;58088;51.186;17.130;2023-02-28T01:27:56;47.40;;;19.30;;
70532;SDS011;58088;51.186;17.130;2023-02-28T01:30:22;45.70;;;17.60;;
70532;SDS011;58088;51.186;17.130;2023-02-28T01:32:48;28.30;;;11.90;;
70532;SDS011;58088;51.186;17.130;2023-02-28T01:35:17;31.60;;;12.60;;
70532;SDS011;58088;51.186;17.130;2023-02-28T01:37:44;36.90;;;14.30;;
70532;SDS011;58088;51.186;17.130;2023-02-28T01:40:12;31.20;;;12.50;;
70532;SDS011;58088;51.186;17.130;2023-02-28T01:42:39;34.20;;;12.40;;
70532;SDS011;58088;51.186;17.130;2023-02-28T01:47:55;30.80;;;12.20;;
70532;SDS011;58088;51.186;17.130;2023-02-28T01:50:28;29.20;;;11.30;;
70532;SDS011;58088;51.186;17.130;2023-02-28T01:53:01;24.40;;;9.00;;
70532;SDS011;58088;51.186;17.130;2023-02-28T01:55:31;22.40;;;9.10;;
70532;SDS011;58088;51.186;17.130;2023-02-28T01:58:01;29.10;;;10.80;;
70532;SDS011;58088;51.186;17.130;2023-02-28T02:00:31;29.50;;;12.20;;
70532;SDS011;58088;51.186;17.130;2023-02-28T02:03:01;26.40;;;10.30;;
70532;SDS011;58088;51.186;17.130;2023-02-28T02:05:37;24.70;;;10.10;;
70532;SDS011;58088;51.186;17.130;2023-02-28T02:08:12;24.10;;;9.50;;
70532;SDS011;58088;51.186;17.130;2023-02-28T02:10:55;31.70;;;12.50;;
70532;SDS011;58088;51.186;17.130;2023-02-28T02:13:50;35.70;;;14.20;;
70532;SDS011;58088;51.186;17.130;2023-02-28T02:16:48;36.60;;;13.70;;
70532;SDS011;58088;51.186;17.130;2023-02-28T02:22:48;34.70;;;13.90;;
70532;SDS011;58088;51.186;17.130;2023-02-28T02:25:49;39.50;;;14.40;;
70532;SDS011;58088;51.186;17.130;2023-02-28T02:28:56;31.80;;;13.20;;
70532;SDS011;58088;51.186;17.130;2023-02-28T02:34:31;36.20;;;14.30;;
70532;SDS011;58088;51.186;17.130;2023-02-28T02:37:41;36.40;;;14.50;;
70532;SDS011;58088;51.186;17.130;2023-02-28T02:46:07;36.20;;;16.10;;
70532;SDS011;58088;51.186;17.130;2023-02-28T02:48:41;49.20;;;19.70;;
70532;SDS011;58088;51.186;17.130;2023-02-28T02:51:14;39.40;;;15.90;;
70532;SDS011;58088;51.186;17.130;2023-02-28T02:53:55;33.50;;;14.20;;
70532;SDS011;58088;51.186;17.130;2023-02-28T02:56:28;38.00;;;14.50;;
70532;SDS011;58088;51.186;17.130;2023-02-28T02:59:01;38.20;;;15.40;;
70532;SDS011;58088;51.186;17.130;2023-02-28T03:01:31;38.60;;;15.40;;
70532;SDS011;58088;51.186;17.130;2023-02-28T03:04:04;38.20;;;15.00;;
70532;SDS011;58088;51.186;17.130;2023-02-28T03:06:34;37.90;;;14.70;;
70532;SDS011;58088;51.186;17.130;2023-02-28T03:09:01;39.70;;;15.80;;
70532;SDS011;58088;51.186;17.130;2023-02-28T03:11:29;46.10;;;15.50;;
70532;SDS011;58088;51.186;17.130;2023-02-28T03:27:46;30.20;;;12.80;;
70532;SDS011;58088;51.186;17.130;2023-02-28T03:33:39;39.60;;;14.50;;
70532;SDS011;58088;51.186;17.130;2023-02-28T03:36:13;30.00;;;12.90;;
70532;SDS011;58088;51.186;17.130;2023-02-28T03:41:36;39.50;;;15.40;;
70532;SDS011;58088;51.186;17.130;2023-02-28T03:44:18;43.00;;;17.00;;
70532;SDS011;58088;51.186;17.130;2023-02-28T03:46:58;35.30;;;15.70;;
70532;SDS011;58088;51.186;17.130;2023-02-28T03:49:36;38.20;;;16.60;;
70532;SDS011;58088;51.186;17.130;2023-02-28T03:52:09;37.20;;;15.90;;
70532;SDS011;58088;51.186;17.130;2023-02-28T03:54:44;33.10;;;13.10;;
70532;SDS011;58088;51.186;17.130;2023-02-28T03:57:32;36.10;;;15.10;;
70532;SDS011;58088;51.186;17.130;2023-02-28T04:00:20;39.50;;;16.10;;
70532;SDS011;58088;51.186;17.130;2023-02-28T04:02:54;40.50;;;16.00;;
70532;SDS011;58088;51.186;17.130;2023-02-28T04:05:22;36.90;;;16.30;;
70532;SDS011;58088;51.186;17.130;2023-02-28T04:07:48;39.30;;;14.90;;
70532;SDS011;58088;51.186;17.130;2023-02-28T04:10:16;25.00;;;10.20;;
70532;SDS011;58088;51.186;17.130;2023-02-28T04:12:42;34.50;;;14.00;;
70532;SDS011;58088;51.186;17.130;2023-02-28T04:15:08;37.60;;;15.90;;
70532;SDS011;58088;51.186;17.130;2023-02-28T04:17:36;35.30;;;14.00;;
70532;SDS011;58088;51.186;17.130;2023-02-28T04:20:03;34.80;;;14.10;;
70532;SDS011;58088;51.186;17.130;2023-02-28T04:22:35;36.10;;;14.60;;
70532;SDS011;58088;51.186;17.130;2023-02-28T04:25:02;34.20;;;14.10;;
70532;SDS011;58088;51.186;17.130;2023-02-28T04:27:29;34.40;;;14.30;;
70532;SDS011;58088;51.186;17.130;2023-02-28T04:29:55;29.50;;;12.30;;
70532;SDS011;58088;51.186;17.130;2023-02-28T04:32:21;31.70;;;13.60;;
70532;SDS011;58088;51.186;17.130;2023-02-28T04:34:48;34.20;;;13.20;;
70532;SDS011;58088;51.186;17.130;2023-02-28T04:37:14;32.50;;;11.80;;
70532;SDS011;58088;51.186;17.130;2023-02-28T04:39:41;22.80;;;8.90;;
70532;SDS011;58088;51.186;17.130;2023-02-28T04:42:09;32.60;;;13.00;;
70532;SDS011;58088;51.186;17.130;2023-02-28T04:44:35;32.50;;;12.60;;
70532;SDS011;58088;51.186;17.130;2023-02-28T04:47:02;32.90;;;13.40;;
70532;SDS011;58088;51.186;17.130;2023-02-28T04:49:28;32.50;;;12.80;;
70532;SDS011;58088;51.186;17.130;2023-02-28T04:51:54;29.10;;;11.90;;
70532;SDS011;58088;51.186;17.130;2023-02-28T04:54:21;30.20;;;11.70;;
70532;SDS011;58088;51.186;17.130;2023-02-28T04:56:47;29.10;;;11.60;;
70532;SDS011;58088;51.186;17.130;2023-02-28T04:59:15;42.80;;;14.70;;
70532;SDS011;58088;51.186;17.130;2023-02-28T05:01:46;32.60;;;12.70;;
70532;SDS011;58088;51.186;17.130;2023-02-28T05:04:14;26.40;;;10.30;;
70532;SDS011;58088;51.186;17.130;2023-02-28T05:06:41;22.50;;;9.10;;
70532;SDS011;58088;51.186;17.130;2023-02-28T05:09:07;24.30;;;9.20;;
70532;SDS011;58088;51.186;17.130;2023-02-28T05:11:34;22.90;;;9.20;;
70532;SDS011;58088;51.186;17.130;2023-02-28T05:14:03;22.50;;;9.00;;
70532;SDS011;58088;51.186;17.130;2023-02-28T05:16:35;23.20;;;8.70;;
70532;SDS011;58088;51.186;17.130;2023-02-28T05:19:02;22.90;;;9.40;;
70532;SDS011;58088;51.186;17.130;2023-02-28T05:21:33;33.50;;;12.80;;
70532;SDS011;58088;51.186;17.130;2023-02-28T05:24:06;35.50;;;13.30;;
70532;SDS011;58088;51.186;17.130;2023-02-28T05:26:37;29.00;;;12.50;;
70532;SDS011;58088;51.186;17.130;2023-02-28T05:29:06;23.90;;;9.60;;
70532;SDS011;58088;51.186;17.130;2023-02-28T05:31:33;24.20;;;10.20;;
70532;SDS011;58088;51.186;17.130;2023-02-28T05:34:00;26.70;;;10.50;;
70532;SDS011;58088;51.186;17.130;2023-02-28T05:36:26;29.60;;;12.70;;
70532;SDS011;58088;51.186;17.130;2023-02-28T05:38:53;28.10;;;11.00;;
70532;SDS011;58088;51.186;17.130;2023-02-28T05:41:20;31.70;;;11.40;;
70532;SDS011;58088;51.186;17.130;2023-02-28T05:43:47;30.70;;;11.70;;
70532;SDS011;58088;51.186;17.130;2023-02-28T05:46:14;31.00;;;11.90;;
70532;SDS011;58088;51.186;17.130;2023-02-28T05:48:42;31.10;;;11.90;;
70532;SDS011;58088;51.186;17.130;2023-02-28T05:51:12;33.00;;;12.40;;
70532;SDS011;58088;51.186;17.130;2023-02-28T05:53:38;27.60;;;11.20;;
70532;SDS011;58088;51.186;17.130;2023-02-28T05:56:05;35.50;;;13.30;;
70532;SDS011;58088;51.186;17.130;2023-02-28T05:58:31;31.40;;;12.70;;
70532;SDS011;58088;51.186;17.130;2023-02-28T06:00:59;31.40;;;12.60;;
70532;SDS011;58088;51.186;17.130;2023-02-28T06:03:26;37.50;;;14.00;;
70532;SDS011;58088;51.186;17.130;2023-02-28T06:05:53;31.70;;;12.00;;
70532;SDS011;58088;51.186;17.130;2023-02-28T06:08:19;33.60;;;13.30;;
70532;SDS011;58088;51.186;17.130;2023-02-28T06:10:46;29.70;;;12.80;;
70532;SDS011;58088;51.186;17.130;2023-02-28T06:13:12;32.20;;;12.80;;
70532;SDS011;58088;51.186;17.130;2023-02-28T06:15:38;34.40;;;13.30;;
70532;SDS011;58088;51.186;17.130;2023-02-28T06:18:05;24.10;;;9.80;;
70532;SDS011;58088;51.186;17.130;2023-02-28T06:20:31;24.10;;;10.80;;
70532;SDS011;58088;51.186;17.130;2023-02-28T06:22:58;30.60;;;12.10;;
70532;SDS011;58088;51.186;17.130;2023-02-28T06:25:26;30.10;;;12.50;;
70532;SDS011;58088;51.186;17.130;2023-02-28T06:27:53;31.70;;;12.90;;
70532;SDS011;58088;51.186;17.130;2023-02-28T06:30:20;34.50;;;13.70;;
70532;SDS011;58088;51.186;17.130;2023-02-28T06:32:52;33.10;;;13.60;;
70532;SDS011;58088;51.186;17.130;2023-02-28T06:35:20;35.90;;;13.70;;
70532;SDS011;58088;51.186;17.130;2023-02-28T06:37:46;51.20;;;19.90;;
70532;SDS011;58088;51.186;17.130;2023-02-28T06:40:13;44.90;;;19.20;;
70532;SDS011;58088;51.186;17.130;2023-02-28T06:42:40;67.00;;;24.20;;
70532;SDS011;58088;51.186;17.130;2023-02-28T06:45:06;58.10;;;21.30;;
70532;SDS011;58088;51.186;17.130;2023-02-28T06:47:36;45.80;;;18.60;;
70532;SDS011;58088;51.186;17.130;2023-02-28T06:50:04;52.00;;;21.30;;
70532;SDS011;58088;51.186;17.130;2023-02-28T06:52:32;58.60;;;25.80;;
70532;SDS011;58088;51.186;17.130;2023-02-28T06:54:58;71.00;;;28.40;;
70532;SDS011;58088;51.186;17.130;2023-02-28T06:57:29;63.60;;;25.10;;
70532;SDS011;58088;51.186;17.130;2023-02-28T07:00:04;52.10;;;22.80;;
70532;SDS011;58088;51.186;17.130;2023-02-28T07:02:37;45.20;;;19.10;;
70532;SDS011;58088;51.186;17.130;2023-02-28T07:05:05;59.80;;;25.70;;
70532;SDS011;58088;51.186;17.130;2023-02-28T07:07:31;44.40;;;19.90;;
70532;SDS011;58088;51.186;17.130;2023-02-28T07:09:58;53.10;;;22.50;;
70532;SDS011;58088;51.186;17.130;2023-02-28T07:12:24;55.00;;;22.30;;
70532;SDS011;58088;51.186;17.130;2023-02-28T07:14:50;49.20;;;21.30;;
70532;SDS011;58088;51.186;17.130;2023-02-28T07:17:16;42.30;;;18.40;;
70532;SDS011;58088;51.186;17.130;2023-02-28T07:19:42;41.10;;;16.90;;
70532;SDS011;58088;51.186;17.130;2023-02-28T07:22:11;35.60;;;16.00;;
70532;SDS011;58088;51.186;17.130;2023-02-28T07:24:37;40.60;;;16.30;;
70532;SDS011;58088;51.186;17.130;2023-02-28T07:27:04;31.20;;;13.10;;
70532;SDS011;58088;51.186;17.130;2023-02-28T07:29:30;29.00;;;13.30;;
70532;SDS011;58088;51.186;17.130;2023-02-28T07:31:57;25.40;;;12.90;;
70532;SDS011;58088;51.186;17.130;2023-02-28T07:34:23;24.80;;;12.00;;
70532;SDS011;58088;51.186;17.130;2023-02-28T07:36:53;20.70;;;10.00;;
70532;SDS011;58088;51.186;17.130;2023-02-28T07:39:21;21.60;;;9.20;;
70532;SDS011;58088;51.186;17.130;2023-02-28T07:41:49;17.30;;;9.10;;
70532;SDS011;58088;51.186;17.130;2023-02-28T07:44:15;16.10;;;8.10;;
70532;SDS011;58088;51.186;17.130;2023-02-28T07:46:42;18.00;;;8.30;;
70532;SDS011;58088;51.186;17.130;2023-02-28T07:49:08;18.10;;;8.90;;
70532;SDS011;58088;51.186;17.130;2023-02-28T07:51:34;15.90;;;8.20;;
70532;SDS011;58088;51.186;17.130;2023-02-28T07:54:01;19.30;;;9.40;;
70532;SDS011;58088;51.186;17.130;2023-02-28T07:56:27;16.70;;;8.30;;
70532;SDS011;58088;51.186;17.130;2023-02-28T07:58:53;17.30;;;8.50;;
70532;SDS011;58088;51.186;17.130;2023-02-28T08:01:19;14.40;;;7.60;;
70532;SDS011;58088;51.186;17.130;2023-02-28T08:03:46;16.90;;;8.50;;
70532;SDS011;58088;51.186;17.130;2023-02-28T08:06:20;15.30;;;7.40;;
70532;SDS011;58088;51.186;17.130;2023-02-28T08:08:48;15.40;;;6.70;;
70532;SDS011;58088;51.186;17.130;2023-02-28T08:11:16;14.10;;;7.40;;
70532;SDS011;58088;51.186;17.130;2023-02-28T08:13:44;16.10;;;7.80;;
70532;SDS011;58088;51.186;17.130;2023-02-28T08:16:12;15.90;;;7.70;;
70532;SDS011;58088;51.186;17.130;2023-02-28T08:18:51;16.80;;;8.90;;
70532;SDS011;58088;51.186;17.130;2023-02-28T08:21:20;17.00;;;8.20;;
70532;SDS011;58088;51.186;17.130;2023-02-28T08:23:48;14.60;;;7.80;;
70532;SDS011;58088;51.186;17.130;2023-02-28T08:26:16;15.80;;;7.90;;
70532;SDS011;58088;51.186;17.130;2023-02-28T08:28:43;16.70;;;7.80;;
70532;SDS011;58088;51.186;17.130;2023-02-28T08:31:12;16.40;;;8.00;;
70532;SDS011;58088;51.186;17.130;2023-02-28T08:33:41;16.00;;;8.00;;
70532;SDS011;58088;51.186;17.130;2023-02-28T08:36:08;14.60;;;7.90;;
70532;SDS011;58088;51.186;17.130;2023-02-28T08:38:36;15.70;;;8.30;;
70532;SDS011;58088;51.186;17.130;2023-02-28T08:41:05;12.60;;;6.90;;
70532;SDS011;58088;51.186;17.130;2023-02-28T08:43:35;14.60;;;7.40;;
70532;SDS011;58088;51.186;17.130;2023-02-28T08:46:02;13.20;;;6.90;;
70532;SDS011;58088;51.186;17.130;2023-02-28T08:48:32;15.90;;;7.40;;
70532;SDS011;58088;51.186;17.130;2023-02-28T08:51:03;16.70;;;7.60;;
70532;SDS011;58088;51.186;17.130;2023-02-28T08:53:36;15.20;;;7.00;;
70532;SDS011;58088;51.186;17.130;2023-02-28T08:56:09;16.90;;;7.00;;
70532;SDS011;58088;51.186;17.130;2023-02-28T08:58:38;15.70;;;7.10;;
70532;SDS011;58088;51.186;17.130;2023-02-28T09:01:20;17.40;;;6.80;;
70532;SDS011;58088;51.186;17.130;2023-02-28T09:03:49;13.50;;;6.50;;
70532;SDS011;58088;51.186;17.130;2023-02-28T09:06:18;14.40;;;6.50;;
70532;SDS011;58088;51.186;17.130;2023-02-28T09:08:45;13.80;;;6.30;;
70532;SDS011;58088;51.186;17.130;2023-02-28T09:11:12;17.50;;;6.60;;
70532;SDS011;58088;51.186;17.130;2023-02-28T09:13:39;12.70;;;6.10;;
70532;SDS011;58088;51.186;17.130;2023-02-28T09:16:10;15.30;;;7.70;;
70532;SDS011;58088;51.186;17.130;2023-02-28T09:18:38;12.30;;;6.00;;
70532;SDS011;58088;51.186;17.130;2023-02-28T09:21:07;13.30;;;6.00;;
70532;SDS011;58088;51.186;17.130;2023-02-28T09:23:35;11.30;;;5.00;;
70532;SDS011;58088;51.186;17.130;2023-02-28T09:26:04;10.50;;;4.20;;
70532;SDS011;58088;51.186;17.130;2023-02-28T09:28:31;12.70;;;5.40;;
70532;SDS011;58088;51.186;17.130;2023-02-28T09:30:58;12.10;;;5.10;;
70532;SDS011;58088;51.186;17.130;2023-02-28T09:33:25;9.40;;;4.40;;
70532;SDS011;58088;51.186;17.130;2023-02-28T09:35:58;13.80;;;6.30;;
70532;SDS011;58088;51.186;17.130;2023-02-28T09:38:26;12.70;;;5.90;;
70532;SDS011;58088;51.186;17.130;2023-02-28T09:41:00;9.70;;;4.20;;
70532;SDS011;58088;51.186;17.130;2023-02-28T09:43:34;13.10;;;5.80;;
70532;SDS011;58088;51.186;17.130;2023-02-28T09:46:21;11.10;;;5.60;;
70532;SDS011;58088;51.186;17.130;2023-02-28T09:48:55;12.50;;;5.40;;
70532;SDS011;58088;51.186;17.130;2023-02-28T09:51:37;12.60;;;5.70;;
70532;SDS011;58088;51.186;17.130;2023-02-28T09:54:15;11.30;;;5.00;;
70532;SDS011;58088;51.186;17.130;2023-02-28T09:56:49;11.80;;;5.20;;
70532;SDS011;58088;51.186;17.130;2023-02-28T09:59:29;12.00;;;5.60;;
70532;SDS011;58088;51.186;17.130;2023-02-28T10:05:13;11.80;;;5.30;;
70532;SDS011;58088;51.186;17.130;2023-02-28T10:10:50;13.10;;;5.30;;
70532;SDS011;58088;51.186;17.130;2023-02-28T10:13:30;13.70;;;5.80;;
70532;SDS011;58088;51.186;17.130;2023-02-28T10:16:09;10.80;;;4.40;;
70532;SDS011;58088;51.186;17.130;2023-02-28T10:18:50;13.10;;;6.20;;
70532;SDS011;58088;51.186;17.130;2023-02-28T10:21:28;15.50;;;7.80;;
70532;SDS011;58088;51.186;17.130;2023-02-28T10:24:36;17.80;;;7.70;;
70532;SDS011;58088;51.186;17.130;2023-02-28T10:29:43;16.20;;;6.40;;
70532;SDS011;58088;51.186;17.130;2023-02-28T10:32:17;14.20;;;5.90;;
70532;SDS011;58088;51.186;17.130;2023-02-28T10:34:57;13.20;;;6.30;;
70532;SDS011;58088;51.186;17.130;2023-02-28T10:37:49;15.90;;;7.50;;
70532;SDS011;58088;51.186;17.130;2023-02-28T10:45:26;12.80;;;6.00;;
70532;SDS011;58088;51.186;17.130;2023-02-28T10:48:04;14.80;;;6.00;;
70532;SDS011;58088;51.186;17.130;2023-02-28T10:50:52;16.20;;;7.10;;
70532;SDS011;58088;51.186;17.130;2023-02-28T11:01:39;18.10;;;7.60;;
70532;SDS011;58088;51.186;17.130;2023-02-28T11:04:19;16.30;;;7.70;;
70532;SDS011;58088;51.186;17.130;2023-02-28T11:07:01;14.50;;;6.70;;
70532;SDS011;58088;51.186;17.130;2023-02-28T11:09:45;17.50;;;8.50;;
70532;SDS011;58088;51.186;17.130;2023-02-28T11:20:38;18.60;;;7.70;;
70532;SDS011;58088;51.186;17.130;2023-02-28T11:23:12;14.60;;;6.20;;
70532;SDS011;58088;51.186;17.130;2023-02-28T11:25:39;16.50;;;7.50;;
70532;SDS011;58088;51.186;17.130;2023-02-28T11:28:47;14.90;;;6.70;;
70532;SDS011;58088;51.186;17.130;2023-02-28T11:33:48;17.60;;;7.70;;
70532;SDS011;58088;51.186;17.130;2023-02-28T11:36:29;15.30;;;7.40;;
70532;SDS011;58088;51.186;17.130;2023-02-28T11:39:07;13.40;;;6.10;;
70532;SDS011;58088;51.186;17.130;2023-02-28T11:54:03;19.30;;;7.70;;
70532;SDS011;58088;51.186;17.130;2023-02-28T11:56:51;18.80;;;8.90;;
70532;SDS011;58088;51.186;17.130;2023-02-28T12:02:25;16.00;;;6.30;;
70532;SDS011;58088;51.186;17.130;2023-02-28T12:05:39;14.80;;;5.90;;
70532;SDS011;58088;51.186;17.130;2023-02-28T12:11:33;11.90;;;4.50;;
70532;SDS011;58088;51.186;17.130;2023-02-28T12:14:44;15.50;;;6.00;;
70532;SDS011;58088;51.186;17.130;2023-02-28T12:20:29;15.60;;;6.50;;
70532;SDS011;58088;51.186;17.130;2023-02-28T12:26:10;14.20;;;5.80;;
70532;SDS011;58088;51.186;17.130;2023-02-28T12:29:17;15.30;;;6.40;;
70532;SDS011;58088;51.186;17.130;2023-02-28T12:34:37;17.10;;;8.00;;
70532;SDS011;58088;51.186;17.130;2023-02-28T12:37:22;11.60;;;5.00;;
70532;SDS011;58088;51.186;17.130;2023-02-28T12:40:02;15.00;;;6.10;;
70532;SDS011;58088;51.186;17.130;2023-02-28T12:42:42;13.90;;;6.10;;
70532;SDS011;58088;51.186;17.130;2023-02-28T12:45:19;8.00;;;2.90;;
70532;SDS011;58088;51.186;17.130;2023-02-28T12:47:55;15.40;;;6.90;;
70532;SDS011;58088;51.186;17.130;2023-02-28T12:50:27;16.20;;;6.90;;
70532;SDS011;58088;51.186;17.130;2023-02-28T12:56:12;14.50;;;6.50;;
70532;SDS011;58088;51.186;17.130;2023-02-28T12:58:54;23.50;;;8.10;;
70532;SDS011;58088;51.186;17.130;2023-02-28T13:01:48;18.10;;;8.00;;
70532;SDS011;58088;51.186;17.130;2023-02-28T13:10:08;23.40;;;10.60;;
70532;SDS011;58088;51.186;17.130;2023-02-28T13:12:36;17.50;;;8.30;;
70532;SDS011;58088;51.186;17.130;2023-02-28T13:15:24;16.00;;;6.50;;
70532;SDS011;58088;51.186;17.130;2023-02-28T13:17:58;16.90;;;7.30;;
70532;SDS011;58088;51.186;17.130;2023-02-28T13:20:29;17.60;;;6.90;;
70532;SDS011;58088;51.186;17.130;2023-02-28T13:23:00;16.10;;;6.80;;
70532;SDS011;58088;51.186;17.130;2023-02-28T13:28:01;14.80;;;6.60;;
70532;SDS011;58088;51.186;17.130;2023-02-28T13:33:24;15.90;;;7.00;;
70532;SDS011;58088;51.186;17.130;2023-02-28T13:38:45;17.00;;;7.30;;
70532;SDS011;58088;51.186;17.130;2023-02-28T13:41:45;17.10;;;7.50;;
70532;SDS011;58088;51.186;17.130;2023-02-28T13:49:28;21.10;;;8.70;;
70532;SDS011;58088;51.186;17.130;2023-02-28T14:01:22;15.30;;;6.50;;
70532;SDS011;58088;51.186;17.130;2023-02-28T14:07:03;15.60;;;6.60;;
70532;SDS011;58088;51.186;17.130;2023-02-28T14:09:35;14.80;;;7.00;;
70532;SDS011;58088;51.186;17.130;2023-02-28T14:15:46;15.40;;;7.10;;
70532;SDS011;58088;51.186;17.130;2023-02-28T14:18:31;15.50;;;6.50;;
70532;SDS011;58088;51.186;17.130;2023-02-28T14:38:23;14.50;;;6.30;;
70532;SDS011;58088;51.186;17.130;2023-02-28T14:41:04;15.30;;;6.30;;
70532;SDS011;58088;51.186;17.130;2023-02-28T14:43:51;15.20;;;7.30;;
70532;SDS011;58088;51.186;17.130;2023-02-28T14:46:27;13.40;;;5.80;;
70532;SDS011;58088;51.186;17.130;2023-02-28T14:48:58;13.20;;;5.30;;
70532;SDS011;58088;51.186;17.130;2023-02-28T14:51:25;12.20;;;5.10;;
70532;SDS011;58088;51.186;17.130;2023-02-28T14:53:57;10.40;;;4.50;;
70532;SDS011;58088;51.186;17.130;2023-02-28T14:56:32;10.70;;;4.40;;
70532;SDS011;58088;51.186;17.130;2023-02-28T14:59:03;13.20;;;6.10;;
70532;SDS011;58088;51.186;17.130;2023-02-28T15:01:31;10.70;;;5.20;;
70532;SDS011;58088;51.186;17.130;2023-02-28T15:04:02;12.70;;;5.50;;
70532;SDS011;58088;51.186;17.130;2023-02-28T15:06:31;15.00;;;6.70;;
70532;SDS011;58088;51.186;17.130;2023-02-28T15:09:13;18.80;;;9.40;;
70532;SDS011;58088;51.186;17.130;2023-02-28T15:11:46;13.00;;;6.30;;
70532;SDS011;58088;51.186;17.130;2023-02-28T15:14:19;14.50;;;5.60;;
70532;SDS011;58088;51.186;17.130;2023-02-28T15:16:51;13.80;;;6.40;;
70532;SDS011;58088;51.186;17.130;2023-02-28T15:19:33;13.00;;;5.70;;
70532;SDS011;58088;51.186;17.130;2023-02-28T15:22:06;14.70;;;6.30;;
70532;SDS011;58088;51.186;17.130;2023-02-28T15:24:43;16.40;;;7.30;;
70532;SDS011;58088;51.186;17.130;2023-02-28T15:27:26;14.50;;;6.40;;
70532;SDS011;58088;51.186;17.130;2023-02-28T15:29:59;14.90;;;6.80;;
70532;SDS011;58088;51.186;17.130;2023-02-28T15:32:33;15.30;;;6.60;;
70532;SDS011;58088;51.186;17.130;2023-02-28T15:35:27;14.50;;;6.30;;
70532;SDS011;58088;51.186;17.130;2023-02-28T15:38:39;11.10;;;4.50;;
70532;SDS011;58088;51.186;17.130;2023-02-28T15:40:58;13.30;;;6.10;;
70532;SDS011;58088;51.186;17.130;2023-02-28T15:43:36;14.90;;;6.40;;
70532;SDS011;58088;51.186;17.130;2023-02-28T15:46:09;14.40;;;7.00;;
70532;SDS011;58088;51.186;17.130;2023-02-28T15:48:53;19.60;;;8.50;;
70532;SDS011;58088;51.186;17.130;2023-02-28T15:51:36;15.30;;;6.70;;
70532;SDS011;58088;51.186;17.130;2023-02-28T15:54:07;17.50;;;8.50;;
70532;SDS011;58088;51.186;17.130;2023-02-28T15:56:50;23.60;;;10.60;;
70532;SDS011;58088;51.186;17.130;2023-02-28T15:59:25;16.40;;;7.90;;
70532;SDS011;58088;51.186;17.130;2023-02-28T16:04:36;19.10;;;8.70;;
70532;SDS011;58088;51.186;17.130;2023-02-28T16:07:05;16.60;;;7.40;;
70532;SDS011;58088;51.186;17.130;2023-02-28T16:09:38;23.60;;;11.10;;
70532;SDS011;58088;51.186;17.130;2023-02-28T16:12:05;20.70;;;10.50;;
70532;SDS011;58088;51.186;17.130;2023-02-28T16:14:31;22.00;;;9.50;;
70532;SDS011;58088;51.186;17.130;2023-02-28T16:17:06;25.10;;;11.40;;
70532;SDS011;58088;51.186;17.130;2023-02-28T16:19:43;21.40;;;9.30;;
70532;SDS011;58088;51.186;17.130;2023-02-28T16:22:10;18.90;;;8.80;;
70532;SDS011;58088;51.186;17.130;2023-02-28T16:24:36;27.20;;;13.10;;
70532;SDS011;58088;51.186;17.130;2023-02-28T16:27:04;26.60;;;12.20;;
70532;SDS011;58088;51.186;17.130;2023-02-28T16:29:34;22.20;;;11.40;;
70532;SDS011;58088;51.186;17.130;2023-02-28T16:32:06;24.90;;;11.70;;
70532;SDS011;58088;51.186;17.130;2023-02-28T16:34:34;18.90;;;8.50;;
70532;SDS011;58088;51.186;17.130;2023-02-28T16:37:00;23.10;;;11.70;;
70532;SDS011;58088;51.186;17.130;2023-02-28T16:39:27;38.10;;;17.60;;
70532;SDS011;58088;51.186;17.130;2023-02-28T16:41:54;34.80;;;14.90;;
70532;SDS011;58088;51.186;17.130;2023-02-28T16:44:28;30.80;;;14.40;;
70532;SDS011;58088;51.186;17.130;2023-02-28T16:46:59;29.60;;;14.70;;
70532;SDS011;58088;51.186;17.130;2023-02-28T16:49:27;46.80;;;19.70;;
70532;SDS011;58088;51.186;17.130;2023-02-28T16:51:54;29.20;;;14.50;;
70532;SDS011;58088;51.186;17.130;2023-02-28T16:54:21;39.00;;;18.00;;
70532;SDS011;58088;51.186;17.130;2023-02-28T16:56:48;34.20;;;15.60;;
70532;SDS011;58088;51.186;17.130;2023-02-28T16:59:19;29.10;;;14.10;;
70532;SDS011;58088;51.186;17.130;2023-02-28T17:01:49;24.70;;;12.80;;
70532;SDS011;58088;51.186;17.130;2023-02-28T17:04:17;28.30;;;12.90;;
70532;SDS011;58088;51.186;17.130;2023-02-28T17:06:53;52.40;;;26.20;;
70532;SDS011;58088;51.186;17.130;2023-02-28T17:09:23;58.90;;;27.40;;
70532;SDS011;58088;51.186;17.130;2023-02-28T17:11:51;45.20;;;20.50;;
70532;SDS011;58088;51.186;17.130;2023-02-28T17:14:17;49.40;;;23.70;;
70532;SDS011;58088;51.186;17.130;2023-02-28T17:16:48;63.00;;;26.10;;
70532;SDS011;58088;51.186;17.130;2023-02-28T17:19:20;71.40;;;26.80;;